sensor_id;sensor_type;location;lat;lon;timestamp;P1;durP1;ratioP1;P2;durP2;ratioP2
65210;SDS011;51794;52.758;55.792;2022-09-09T00:00:41;2.97;;;2.42;;
65210;SDS011;51794;52.758;55.792;2022-09-09T00:08:36;3.78;;;2.30;;
65210;SDS011;51794;52.758;55.792;2022-09-09T00:11:07;2.60;;;2.40;;
65210;SDS011;51794;52.758;55.792;2022-09-09T00:13:42;4.65;;;2.50;;
65210;SDS011;51794;52.758;55.792;2022-09-09T00:16:15;3.08;;;2.38;;
65210;SDS011;51794;52.758;55.792;2022-09-09T00:21:17;4.35;;;2.33;;
65210;SDS011;51794;52.758;55.792;2022-09-09T00:23:44;5.35;;;2.47;;
65210;SDS011;51794;52.758;55.792;2022-09-09T00:26:26;5.95;;;2.40;;
65210;SDS011;51794;52.758;55.792;2022-09-09T00:32:00;4.72;;;2.70;;
65210;SDS011;51794;52.758;55.792;2022-09-09T00:34:56;2.95;;;2.33;;
65210;SDS011;51794;52.758;55.792;2022-09-09T00:37:28;3.70;;;2.70;;
65210;SDS011;51794;52.758;55.792;2022-09-09T00:39:58;2.90;;;2.40;;
65210;SDS011;51794;52.758;55.792;2022-09-09T00:42:43;6.88;;;2.83;;
65210;SDS011;51794;52.758;55.792;2022-09-09T00:45:19;3.22;;;2.63;;
65210;SDS011;51794;52.758;55.792;2022-09-09T00:48:11;8.98;;;3.13;;
65210;SDS011;51794;52.758;55.792;2022-09-09T00:50:42;2.85;;;2.40;;
65210;SDS011;51794;52.758;55.792;2022-09-09T00:56:16;4.88;;;2.55;;
65210;SDS011;51794;52.758;55.792;2022-09-09T01:01:43;3.05;;;2.75;;
65210;SDS011;51794;52.758;55.792;2022-09-09T01:04:11;6.53;;;2.63;;
65210;SDS011;51794;52.758;55.792;2022-09-09T01:06:42;6.15;;;2.72;;
65210;SDS011;51794;52.758;55.792;2022-09-09T01:18:26;4.85;;;2.80;;
65210;SDS011;51794;52.758;55.792;2022-09-09T01:26:41;6.07;;;2.95;;
65210;SDS011;51794;52.758;55.792;2022-09-09T01:29:08;3.95;;;2.80;;
65210;SDS011;51794;52.758;55.792;2022-09-09T01:31:54;4.32;;;2.85;;
65210;SDS011;51794;52.758;55.792;2022-09-09T01:34:25;3.72;;;2.97;;
65210;SDS011;51794;52.758;55.792;2022-09-09T01:36:58;3.95;;;3.03;;
65210;SDS011;51794;52.758;55.792;2022-09-09T01:39:33;5.70;;;2.90;;
65210;SDS011;51794;52.758;55.792;2022-09-09T01:42:01;5.20;;;3.22;;
65210;SDS011;51794;52.758;55.792;2022-09-09T01:44:30;4.90;;;3.50;;
65210;SDS011;51794;52.758;55.792;2022-09-09T01:46:56;4.20;;;2.80;;
65210;SDS011;51794;52.758;55.792;2022-09-09T01:49:22;4.25;;;3.00;;
65210;SDS011;51794;52.758;55.792;2022-09-09T01:51:50;5.70;;;2.78;;
65210;SDS011;51794;52.758;55.792;2022-09-09T01:54:19;5.10;;;2.80;;
65210;SDS011;51794;52.758;55.792;2022-09-09T01:59:32;7.03;;;2.83;;
65210;SDS011;51794;52.758;55.792;2022-09-09T02:02:59;5.65;;;2.67;;
65210;SDS011;51794;52.758;55.792;2022-09-09T02:08:10;7.25;;;3.35;;
65210;SDS011;51794;52.758;55.792;2022-09-09T02:13:34;5.18;;;2.75;;
65210;SDS011;51794;52.758;55.792;2022-09-09T02:16:10;3.75;;;3.30;;
65210;SDS011;51794;52.758;55.792;2022-09-09T02:19:06;5.05;;;2.83;;
65210;SDS011;51794;52.758;55.792;2022-09-09T02:21:37;4.13;;;3.00;;
65210;SDS011;51794;52.758;55.792;2022-09-09T02:24:05;5.45;;;3.20;;
65210;SDS011;51794;52.758;55.792;2022-09-09T02:26:37;6.93;;;2.92;;
65210;SDS011;51794;52.758;55.792;2022-09-09T02:29:41;3.28;;;2.83;;
65210;SDS011;51794;52.758;55.792;2022-09-09T02:32:03;4.30;;;2.97;;
65210;SDS011;51794;52.758;55.792;2022-09-09T02:34:31;4.20;;;2.77;;
65210;SDS011;51794;52.758;55.792;2022-09-09T02:39:29;5.45;;;2.78;;
65210;SDS011;51794;52.758;55.792;2022-09-09T02:41:55;5.25;;;3.28;;
65210;SDS011;51794;52.758;55.792;2022-09-09T02:44:21;4.80;;;2.75;;
65210;SDS011;51794;52.758;55.792;2022-09-09T02:52:35;2.80;;;2.10;;
65210;SDS011;51794;52.758;55.792;2022-09-09T02:57:57;3.80;;;2.20;;
65210;SDS011;51794;52.758;55.792;2022-09-09T03:00:26;3.13;;;2.42;;
65210;SDS011;51794;52.758;55.792;2022-09-09T03:02:53;4.75;;;2.20;;
65210;SDS011;51794;52.758;55.792;2022-09-09T03:05:22;3.08;;;2.20;;
65210;SDS011;51794;52.758;55.792;2022-09-09T03:07:49;2.67;;;2.30;;
65210;SDS011;51794;52.758;55.792;2022-09-09T03:10:16;3.03;;;2.70;;
65210;SDS011;51794;52.758;55.792;2022-09-09T03:12:43;2.55;;;2.28;;
65210;SDS011;51794;52.758;55.792;2022-09-09T03:15:09;5.82;;;2.75;;
65210;SDS011;51794;52.758;55.792;2022-09-09T03:17:36;3.88;;;2.88;;
65210;SDS011;51794;52.758;55.792;2022-09-09T03:20:05;4.15;;;2.70;;
65210;SDS011;51794;52.758;55.792;2022-09-09T03:22:32;3.50;;;2.17;;
65210;SDS011;51794;52.758;55.792;2022-09-09T03:24:59;3.60;;;2.15;;
65210;SDS011;51794;52.758;55.792;2022-09-09T03:27:25;3.55;;;2.10;;
65210;SDS011;51794;52.758;55.792;2022-09-09T03:29:51;2.60;;;1.85;;
65210;SDS011;51794;52.758;55.792;2022-09-09T03:32:17;2.90;;;1.90;;
65210;SDS011;51794;52.758;55.792;2022-09-09T03:34:44;2.80;;;2.00;;
65210;SDS011;51794;52.758;55.792;2022-09-09T03:37:12;2.40;;;2.03;;
65210;SDS011;51794;52.758;55.792;2022-09-09T03:39:38;3.63;;;1.90;;
65210;SDS011;51794;52.758;55.792;2022-09-09T03:42:04;4.50;;;1.85;;
65210;SDS011;51794;52.758;55.792;2022-09-09T03:44:31;3.75;;;1.77;;
65210;SDS011;51794;52.758;55.792;2022-09-09T03:46:56;2.63;;;1.50;;
65210;SDS011;51794;52.758;55.792;2022-09-09T03:49:26;5.47;;;1.70;;
65210;SDS011;51794;52.758;55.792;2022-09-09T03:51:54;3.60;;;1.50;;
65210;SDS011;51794;52.758;55.792;2022-09-09T03:54:23;3.88;;;1.83;;
65210;SDS011;51794;52.758;55.792;2022-09-09T03:56:49;2.97;;;1.50;;
65210;SDS011;51794;52.758;55.792;2022-09-09T03:59:15;3.22;;;2.00;;
65210;SDS011;51794;52.758;55.792;2022-09-09T04:01:41;3.30;;;1.85;;
65210;SDS011;51794;52.758;55.792;2022-09-09T04:04:08;5.75;;;2.38;;
65210;SDS011;51794;52.758;55.792;2022-09-09T04:06:34;2.88;;;2.10;;
65210;SDS011;51794;52.758;55.792;2022-09-09T04:09:00;5.38;;;2.80;;
65210;SDS011;51794;52.758;55.792;2022-09-09T04:11:28;3.85;;;2.50;;
65210;SDS011;51794;52.758;55.792;2022-09-09T04:13:54;3.97;;;2.33;;
65210;SDS011;51794;52.758;55.792;2022-09-09T04:16:20;4.68;;;2.53;;
65210;SDS011;51794;52.758;55.792;2022-09-09T04:18:46;5.75;;;2.58;;
65210;SDS011;51794;52.758;55.792;2022-09-09T04:21:13;2.63;;;1.80;;
65210;SDS011;51794;52.758;55.792;2022-09-09T04:23:40;2.72;;;2.08;;
65210;SDS011;51794;52.758;55.792;2022-09-09T04:26:06;3.13;;;1.95;;
65210;SDS011;51794;52.758;55.792;2022-09-09T04:28:33;3.20;;;1.77;;
65210;SDS011;51794;52.758;55.792;2022-09-09T04:31:07;3.17;;;1.73;;
65210;SDS011;51794;52.758;55.792;2022-09-09T04:36:06;2.33;;;1.73;;
65210;SDS011;51794;52.758;55.792;2022-09-09T04:38:33;4.38;;;1.70;;
65210;SDS011;51794;52.758;55.792;2022-09-09T04:40:59;3.75;;;2.05;;
65210;SDS011;51794;52.758;55.792;2022-09-09T04:43:25;4.50;;;1.55;;
65210;SDS011;51794;52.758;55.792;2022-09-09T04:45:51;3.67;;;1.40;;
65210;SDS011;51794;52.758;55.792;2022-09-09T04:48:18;5.68;;;2.20;;
65210;SDS011;51794;52.758;55.792;2022-09-09T04:50:53;3.60;;;1.83;;
65210;SDS011;51794;52.758;55.792;2022-09-09T04:53:22;3.50;;;1.48;;
65210;SDS011;51794;52.758;55.792;2022-09-09T04:55:48;2.67;;;1.50;;
65210;SDS011;51794;52.758;55.792;2022-09-09T04:58:14;2.78;;;1.50;;
65210;SDS011;51794;52.758;55.792;2022-09-09T05:00:40;2.92;;;1.48;;
65210;SDS011;51794;52.758;55.792;2022-09-09T05:03:07;2.53;;;1.50;;
65210;SDS011;51794;52.758;55.792;2022-09-09T05:08:04;2.03;;;1.42;;
65210;SDS011;51794;52.758;55.792;2022-09-09T05:10:31;2.90;;;1.83;;
65210;SDS011;51794;52.758;55.792;2022-09-09T05:12:58;2.55;;;1.70;;
65210;SDS011;51794;52.758;55.792;2022-09-09T05:15:25;3.03;;;1.65;;
65210;SDS011;51794;52.758;55.792;2022-09-09T05:17:51;2.55;;;2.03;;
65210;SDS011;51794;52.758;55.792;2022-09-09T05:20:19;2.67;;;1.92;;
65210;SDS011;51794;52.758;55.792;2022-09-09T05:22:45;2.47;;;2.03;;
65210;SDS011;51794;52.758;55.792;2022-09-09T05:25:11;4.63;;;2.00;;
65210;SDS011;51794;52.758;55.792;2022-09-09T05:27:37;3.95;;;1.70;;
65210;SDS011;51794;52.758;55.792;2022-09-09T05:30:03;2.42;;;1.65;;
65210;SDS011;51794;52.758;55.792;2022-09-09T05:32:30;2.08;;;1.55;;
65210;SDS011;51794;52.758;55.792;2022-09-09T05:34:59;4.70;;;1.70;;
65210;SDS011;51794;52.758;55.792;2022-09-09T05:37:25;3.10;;;2.10;;
65210;SDS011;51794;52.758;55.792;2022-09-09T05:39:51;2.22;;;1.65;;
65210;SDS011;51794;52.758;55.792;2022-09-09T05:42:17;1.88;;;1.42;;
65210;SDS011;51794;52.758;55.792;2022-09-09T05:44:43;2.22;;;1.80;;
65210;SDS011;51794;52.758;55.792;2022-09-09T05:47:10;2.88;;;1.80;;
65210;SDS011;51794;52.758;55.792;2022-09-09T05:49:37;3.60;;;2.00;;
65210;SDS011;51794;52.758;55.792;2022-09-09T05:52:03;5.18;;;2.38;;
65210;SDS011;51794;52.758;55.792;2022-09-09T05:54:29;5.55;;;2.08;;
65210;SDS011;51794;52.758;55.792;2022-09-09T05:56:55;3.80;;;1.95;;
65210;SDS011;51794;52.758;55.792;2022-09-09T05:59:21;3.35;;;2.08;;
65210;SDS011;51794;52.758;55.792;2022-09-09T06:01:49;1.67;;;1.58;;
65210;SDS011;51794;52.758;55.792;2022-09-09T06:04:15;2.88;;;1.70;;
65210;SDS011;51794;52.758;55.792;2022-09-09T06:06:41;4.93;;;1.92;;
65210;SDS011;51794;52.758;55.792;2022-09-09T06:09:07;3.15;;;1.80;;
65210;SDS011;51794;52.758;55.792;2022-09-09T06:11:40;3.85;;;1.92;;
65210;SDS011;51794;52.758;55.792;2022-09-09T06:14:07;4.53;;;1.70;;
65210;SDS011;51794;52.758;55.792;2022-09-09T06:16:34;2.70;;;2.00;;
65210;SDS011;51794;52.758;55.792;2022-09-09T06:19:00;2.78;;;2.15;;
65210;SDS011;51794;52.758;55.792;2022-09-09T06:21:29;3.85;;;2.00;;
65210;SDS011;51794;52.758;55.792;2022-09-09T06:23:58;3.05;;;2.00;;
65210;SDS011;51794;52.758;55.792;2022-09-09T06:26:25;4.85;;;2.20;;
65210;SDS011;51794;52.758;55.792;2022-09-09T06:28:53;3.72;;;2.22;;
65210;SDS011;51794;52.758;55.792;2022-09-09T06:31:21;2.33;;;1.95;;
65210;SDS011;51794;52.758;55.792;2022-09-09T06:33:50;4.20;;;2.30;;
65210;SDS011;51794;52.758;55.792;2022-09-09T06:36:18;2.95;;;2.42;;
65210;SDS011;51794;52.758;55.792;2022-09-09T06:38:46;5.28;;;2.17;;
65210;SDS011;51794;52.758;55.792;2022-09-09T06:41:13;4.32;;;2.25;;
65210;SDS011;51794;52.758;55.792;2022-09-09T06:43:40;5.22;;;2.30;;
65210;SDS011;51794;52.758;55.792;2022-09-09T06:46:09;2.45;;;2.10;;
65210;SDS011;51794;52.758;55.792;2022-09-09T06:48:38;3.90;;;2.35;;
65210;SDS011;51794;52.758;55.792;2022-09-09T06:51:10;4.53;;;2.22;;
65210;SDS011;51794;52.758;55.792;2022-09-09T06:53:39;2.13;;;1.92;;
65210;SDS011;51794;52.758;55.792;2022-09-09T06:58:35;2.55;;;2.08;;
65210;SDS011;51794;52.758;55.792;2022-09-09T07:01:10;3.67;;;2.28;;
65210;SDS011;51794;52.758;55.792;2022-09-09T07:03:41;6.22;;;1.98;;
65210;SDS011;51794;52.758;55.792;2022-09-09T07:06:09;4.25;;;2.10;;
65210;SDS011;51794;52.758;55.792;2022-09-09T07:08:50;4.43;;;2.22;;
65210;SDS011;51794;52.758;55.792;2022-09-09T07:11:18;4.80;;;2.05;;
65210;SDS011;51794;52.758;55.792;2022-09-09T07:13:46;3.25;;;2.10;;
65210;SDS011;51794;52.758;55.792;2022-09-09T07:16:14;2.53;;;2.10;;
65210;SDS011;51794;52.758;55.792;2022-09-09T07:18:42;2.53;;;2.30;;
65210;SDS011;51794;52.758;55.792;2022-09-09T07:21:09;2.38;;;2.15;;
65210;SDS011;51794;52.758;55.792;2022-09-09T07:23:37;2.20;;;2.00;;
65210;SDS011;51794;52.758;55.792;2022-09-09T07:26:14;3.40;;;1.98;;
65210;SDS011;51794;52.758;55.792;2022-09-09T07:28:47;2.10;;;1.67;;
65210;SDS011;51794;52.758;55.792;2022-09-09T07:31:16;3.70;;;2.20;;
65210;SDS011;51794;52.758;55.792;2022-09-09T07:33:44;3.42;;;2.38;;
65210;SDS011;51794;52.758;55.792;2022-09-09T07:36:20;4.75;;;2.20;;
65210;SDS011;51794;52.758;55.792;2022-09-09T07:39:01;2.97;;;2.08;;
65210;SDS011;51794;52.758;55.792;2022-09-09T07:41:31;4.65;;;2.10;;
65210;SDS011;51794;52.758;55.792;2022-09-09T07:43:59;3.05;;;2.70;;
65210;SDS011;51794;52.758;55.792;2022-09-09T07:46:29;3.15;;;2.20;;
65210;SDS011;51794;52.758;55.792;2022-09-09T07:48:55;4.38;;;2.22;;
65210;SDS011;51794;52.758;55.792;2022-09-09T07:51:24;3.08;;;1.92;;
65210;SDS011;51794;52.758;55.792;2022-09-09T07:53:53;3.30;;;1.90;;
65210;SDS011;51794;52.758;55.792;2022-09-09T07:58:49;5.85;;;2.17;;
65210;SDS011;51794;52.758;55.792;2022-09-09T08:01:24;3.25;;;2.20;;
65210;SDS011;51794;52.758;55.792;2022-09-09T08:03:59;2.17;;;1.48;;
65210;SDS011;51794;52.758;55.792;2022-09-09T08:06:31;4.07;;;2.08;;
65210;SDS011;51794;52.758;55.792;2022-09-09T08:09:00;4.47;;;2.10;;
65210;SDS011;51794;52.758;55.792;2022-09-09T08:11:26;2.33;;;2.00;;
65210;SDS011;51794;52.758;55.792;2022-09-09T08:13:55;3.25;;;2.25;;
65210;SDS011;51794;52.758;55.792;2022-09-09T08:16:22;2.83;;;2.10;;
65210;SDS011;51794;52.758;55.792;2022-09-09T08:18:51;3.58;;;2.42;;
65210;SDS011;51794;52.758;55.792;2022-09-09T08:21:22;2.25;;;2.03;;
65210;SDS011;51794;52.758;55.792;2022-09-09T08:23:53;3.28;;;2.15;;
65210;SDS011;51794;52.758;55.792;2022-09-09T08:26:21;2.80;;;2.03;;
65210;SDS011;51794;52.758;55.792;2022-09-09T08:28:50;3.88;;;1.88;;
65210;SDS011;51794;52.758;55.792;2022-09-09T08:31:18;3.63;;;2.80;;
65210;SDS011;51794;52.758;55.792;2022-09-09T08:33:49;4.53;;;2.00;;
65210;SDS011;51794;52.758;55.792;2022-09-09T08:36:16;3.88;;;2.33;;
65210;SDS011;51794;52.758;55.792;2022-09-09T08:38:48;3.72;;;2.10;;
65210;SDS011;51794;52.758;55.792;2022-09-09T08:43:48;3.33;;;2.20;;
65210;SDS011;51794;52.758;55.792;2022-09-09T08:49:07;3.10;;;2.80;;
65210;SDS011;51794;52.758;55.792;2022-09-09T08:51:51;3.08;;;2.45;;
65210;SDS011;51794;52.758;55.792;2022-09-09T08:54:22;3.63;;;2.90;;
65210;SDS011;51794;52.758;55.792;2022-09-09T08:56:49;5.93;;;3.03;;
65210;SDS011;51794;52.758;55.792;2022-09-09T08:59:17;4.05;;;3.20;;
65210;SDS011;51794;52.758;55.792;2022-09-09T09:09:57;4.70;;;3.47;;
65210;SDS011;51794;52.758;55.792;2022-09-09T09:12:43;5.40;;;3.78;;
65210;SDS011;51794;52.758;55.792;2022-09-09T09:15:11;5.32;;;3.83;;
65210;SDS011;51794;52.758;55.792;2022-09-09T09:17:45;5.55;;;3.88;;
65210;SDS011;51794;52.758;55.792;2022-09-09T09:20:12;5.47;;;3.47;;
65210;SDS011;51794;52.758;55.792;2022-09-09T09:22:51;6.05;;;4.07;;
65210;SDS011;51794;52.758;55.792;2022-09-09T09:25:21;4.20;;;3.80;;
65210;SDS011;51794;52.758;55.792;2022-09-09T09:28:02;4.20;;;3.80;;
65210;SDS011;51794;52.758;55.792;2022-09-09T09:31:05;6.22;;;4.05;;
65210;SDS011;51794;52.758;55.792;2022-09-09T09:36:08;7.68;;;4.30;;
65210;SDS011;51794;52.758;55.792;2022-09-09T09:38:35;7.03;;;4.50;;
65210;SDS011;51794;52.758;55.792;2022-09-09T09:41:02;7.72;;;3.75;;
65210;SDS011;51794;52.758;55.792;2022-09-09T09:43:29;4.95;;;4.53;;
65210;SDS011;51794;52.758;55.792;2022-09-09T09:45:58;5.28;;;4.13;;
65210;SDS011;51794;52.758;55.792;2022-09-09T09:48:25;5.20;;;3.70;;
65210;SDS011;51794;52.758;55.792;2022-09-09T09:53:29;6.30;;;3.72;;
65210;SDS011;51794;52.758;55.792;2022-09-09T09:58:25;5.32;;;4.05;;
65210;SDS011;51794;52.758;55.792;2022-09-09T10:01:25;5.25;;;3.90;;
65210;SDS011;51794;52.758;55.792;2022-09-09T10:06:35;6.30;;;4.13;;
65210;SDS011;51794;52.758;55.792;2022-09-09T10:09:04;4.50;;;3.90;;
65210;SDS011;51794;52.758;55.792;2022-09-09T10:11:55;4.55;;;4.00;;
65210;SDS011;51794;52.758;55.792;2022-09-09T10:15:00;5.03;;;4.07;;
65210;SDS011;51794;52.758;55.792;2022-09-09T10:22:47;4.43;;;3.88;;
65210;SDS011;51794;52.758;55.792;2022-09-09T10:30:47;5.63;;;4.28;;
65210;SDS011;51794;52.758;55.792;2022-09-09T10:36:20;5.00;;;4.20;;
65210;SDS011;51794;52.758;55.792;2022-09-09T10:38:58;4.70;;;4.03;;
65210;SDS011;51794;52.758;55.792;2022-09-09T10:44:13;4.45;;;4.03;;
65210;SDS011;51794;52.758;55.792;2022-09-09T10:55:09;4.95;;;3.88;;
65210;SDS011;51794;52.758;55.792;2022-09-09T10:57:47;5.13;;;3.58;;
65210;SDS011;51794;52.758;55.792;2022-09-09T11:00:24;4.28;;;3.50;;
65210;SDS011;51794;52.758;55.792;2022-09-09T11:03:04;3.60;;;3.30;;
65210;SDS011;51794;52.758;55.792;2022-09-09T11:08:27;4.30;;;3.30;;
65210;SDS011;51794;52.758;55.792;2022-09-09T11:13:53;5.75;;;3.83;;
65210;SDS011;51794;52.758;55.792;2022-09-09T11:16:29;6.13;;;4.32;;
65210;SDS011;51794;52.758;55.792;2022-09-09T11:22:04;6.00;;;4.15;;
65210;SDS011;51794;52.758;55.792;2022-09-09T11:24:57;5.03;;;3.85;;
65210;SDS011;51794;52.758;55.792;2022-09-09T11:27:36;4.22;;;3.58;;
65210;SDS011;51794;52.758;55.792;2022-09-09T11:33:27;5.07;;;3.78;;
65210;SDS011;51794;52.758;55.792;2022-09-09T11:38:57;4.07;;;3.33;;
65210;SDS011;51794;52.758;55.792;2022-09-09T11:41:44;5.60;;;3.50;;
65210;SDS011;51794;52.758;55.792;2022-09-09T11:44:11;4.57;;;3.30;;
65210;SDS011;51794;52.758;55.792;2022-09-09T11:46:42;3.80;;;3.15;;
65210;SDS011;51794;52.758;55.792;2022-09-09T11:55:08;3.83;;;3.03;;
65210;SDS011;51794;52.758;55.792;2022-09-09T11:57:39;4.82;;;3.50;;
65210;SDS011;51794;52.758;55.792;2022-09-09T12:00:05;3.85;;;3.38;;
65210;SDS011;51794;52.758;55.792;2022-09-09T12:02:31;4.40;;;3.35;;
65210;SDS011;51794;52.758;55.792;2022-09-09T12:07:52;4.03;;;3.40;;
65210;SDS011;51794;52.758;55.792;2022-09-09T12:10:26;5.57;;;3.92;;
65210;SDS011;51794;52.758;55.792;2022-09-09T12:12:55;5.53;;;3.70;;
65210;SDS011;51794;52.758;55.792;2022-09-09T12:15:54;5.40;;;3.15;;
65210;SDS011;51794;52.758;55.792;2022-09-09T12:18:34;4.78;;;4.05;;
65210;SDS011;51794;52.758;55.792;2022-09-09T12:21:21;4.95;;;3.72;;
65210;SDS011;51794;52.758;55.792;2022-09-09T12:24:07;5.40;;;3.47;;
65210;SDS011;51794;52.758;55.792;2022-09-09T12:26:51;7.90;;;3.97;;
65210;SDS011;51794;52.758;55.792;2022-09-09T12:29:27;5.63;;;3.05;;
65210;SDS011;51794;52.758;55.792;2022-09-09T12:32:10;7.45;;;3.67;;
65210;SDS011;51794;52.758;55.792;2022-09-09T12:34:49;7.03;;;3.88;;
65210;SDS011;51794;52.758;55.792;2022-09-09T12:37:24;5.18;;;3.78;;
65210;SDS011;51794;52.758;55.792;2022-09-09T12:40:02;8.10;;;4.32;;
65210;SDS011;51794;52.758;55.792;2022-09-09T12:42:31;6.93;;;4.40;;
65210;SDS011;51794;52.758;55.792;2022-09-09T12:45:02;7.77;;;5.80;;
65210;SDS011;51794;52.758;55.792;2022-09-09T12:47:41;8.00;;;5.60;;
65210;SDS011;51794;52.758;55.792;2022-09-09T12:50:23;7.15;;;5.05;;
65210;SDS011;51794;52.758;55.792;2022-09-09T12:52:52;20.30;;;11.38;;
65210;SDS011;51794;52.758;55.792;2022-09-09T12:55:59;19.05;;;11.30;;
65210;SDS011;51794;52.758;55.792;2022-09-09T12:58:32;17.95;;;9.60;;
65210;SDS011;51794;52.758;55.792;2022-09-09T13:01:00;17.25;;;11.00;;
65210;SDS011;51794;52.758;55.792;2022-09-09T13:03:31;13.35;;;9.25;;
65210;SDS011;51794;52.758;55.792;2022-09-09T13:05:59;13.70;;;8.40;;
65210;SDS011;51794;52.758;55.792;2022-09-09T13:08:37;9.55;;;6.90;;
65210;SDS011;51794;52.758;55.792;2022-09-09T13:11:06;8.27;;;5.93;;
65210;SDS011;51794;52.758;55.792;2022-09-09T13:13:36;8.32;;;5.53;;
65210;SDS011;51794;52.758;55.792;2022-09-09T13:16:17;5.28;;;4.47;;
65210;SDS011;51794;52.758;55.792;2022-09-09T13:19:16;5.32;;;4.22;;
65210;SDS011;51794;52.758;55.792;2022-09-09T13:21:42;5.20;;;3.58;;
65210;SDS011;51794;52.758;55.792;2022-09-09T13:24:29;4.32;;;3.78;;
65210;SDS011;51794;52.758;55.792;2022-09-09T13:26:58;5.38;;;4.38;;
65210;SDS011;51794;52.758;55.792;2022-09-09T13:29:28;6.00;;;4.70;;
65210;SDS011;51794;52.758;55.792;2022-09-09T13:34:53;7.18;;;5.22;;
65210;SDS011;51794;52.758;55.792;2022-09-09T13:37:39;9.05;;;6.05;;
65210;SDS011;51794;52.758;55.792;2022-09-09T13:40:18;11.60;;;7.82;;
65210;SDS011;51794;52.758;55.792;2022-09-09T13:42:47;12.77;;;8.00;;
65210;SDS011;51794;52.758;55.792;2022-09-09T13:45:17;12.57;;;8.10;;
65210;SDS011;51794;52.758;55.792;2022-09-09T13:47:48;9.32;;;6.88;;
65210;SDS011;51794;52.758;55.792;2022-09-09T13:50:30;10.45;;;7.60;;
65210;SDS011;51794;52.758;55.792;2022-09-09T13:52:57;8.77;;;6.38;;
65210;SDS011;51794;52.758;55.792;2022-09-09T13:55:25;11.65;;;8.02;;
65210;SDS011;51794;52.758;55.792;2022-09-09T13:58:02;11.88;;;8.00;;
65210;SDS011;51794;52.758;55.792;2022-09-09T14:00:31;11.07;;;7.25;;
65210;SDS011;51794;52.758;55.792;2022-09-09T14:02:59;10.05;;;7.00;;
65210;SDS011;51794;52.758;55.792;2022-09-09T14:05:27;7.38;;;6.35;;
65210;SDS011;51794;52.758;55.792;2022-09-09T14:07:53;6.22;;;5.47;;
65210;SDS011;51794;52.758;55.792;2022-09-09T14:10:19;11.40;;;8.43;;
65210;SDS011;51794;52.758;55.792;2022-09-09T14:12:46;6.07;;;5.47;;
65210;SDS011;51794;52.758;55.792;2022-09-09T14:15:12;8.25;;;6.65;;
65210;SDS011;51794;52.758;55.792;2022-09-09T14:17:39;7.20;;;4.60;;
65210;SDS011;51794;52.758;55.792;2022-09-09T14:20:06;7.05;;;4.90;;
65210;SDS011;51794;52.758;55.792;2022-09-09T14:22:35;6.80;;;4.80;;
65210;SDS011;51794;52.758;55.792;2022-09-09T14:25:02;7.13;;;4.30;;
65210;SDS011;51794;52.758;55.792;2022-09-09T14:27:28;6.20;;;4.60;;
65210;SDS011;51794;52.758;55.792;2022-09-09T14:29:55;8.02;;;4.50;;
65210;SDS011;51794;52.758;55.792;2022-09-09T14:32:23;6.43;;;4.68;;
65210;SDS011;51794;52.758;55.792;2022-09-09T14:34:49;7.25;;;4.72;;
65210;SDS011;51794;52.758;55.792;2022-09-09T14:37:15;8.10;;;5.03;;
65210;SDS011;51794;52.758;55.792;2022-09-09T14:39:42;7.80;;;5.07;;
65210;SDS011;51794;52.758;55.792;2022-09-09T14:42:12;6.82;;;4.82;;
65210;SDS011;51794;52.758;55.792;2022-09-09T14:44:39;7.40;;;5.43;;
65210;SDS011;51794;52.758;55.792;2022-09-09T14:47:06;7.75;;;5.90;;
65210;SDS011;51794;52.758;55.792;2022-09-09T14:49:33;7.45;;;6.03;;
65210;SDS011;51794;52.758;55.792;2022-09-09T14:52:00;8.68;;;5.88;;
65210;SDS011;51794;52.758;55.792;2022-09-09T14:54:26;8.32;;;6.10;;
65210;SDS011;51794;52.758;55.792;2022-09-09T14:56:53;8.85;;;6.03;;
65210;SDS011;51794;52.758;55.792;2022-09-09T14:59:19;6.90;;;5.47;;
65210;SDS011;51794;52.758;55.792;2022-09-09T15:01:45;7.05;;;5.28;;
65210;SDS011;51794;52.758;55.792;2022-09-09T15:04:12;5.20;;;4.40;;
65210;SDS011;51794;52.758;55.792;2022-09-09T15:06:40;3.58;;;2.90;;
65210;SDS011;51794;52.758;55.792;2022-09-09T15:09:08;5.97;;;4.72;;
65210;SDS011;51794;52.758;55.792;2022-09-09T15:11:35;6.80;;;4.72;;
65210;SDS011;51794;52.758;55.792;2022-09-09T15:14:06;8.07;;;5.63;;
65210;SDS011;51794;52.758;55.792;2022-09-09T15:16:33;8.93;;;5.55;;
65210;SDS011;51794;52.758;55.792;2022-09-09T15:19:00;9.95;;;6.35;;
65210;SDS011;51794;52.758;55.792;2022-09-09T15:21:28;10.15;;;6.65;;
65210;SDS011;51794;52.758;55.792;2022-09-09T15:23:56;11.50;;;6.70;;
65210;SDS011;51794;52.758;55.792;2022-09-09T15:26:23;20.27;;;12.05;;
65210;SDS011;51794;52.758;55.792;2022-09-09T15:28:50;19.25;;;11.02;;
65210;SDS011;51794;52.758;55.792;2022-09-09T15:31:17;10.98;;;6.80;;
65210;SDS011;51794;52.758;55.792;2022-09-09T15:34:05;14.18;;;7.97;;
65210;SDS011;51794;52.758;55.792;2022-09-09T15:39:03;6.95;;;5.10;;
65210;SDS011;51794;52.758;55.792;2022-09-09T15:41:31;5.90;;;4.57;;
65210;SDS011;51794;52.758;55.792;2022-09-09T15:43:58;6.60;;;5.03;;
65210;SDS011;51794;52.758;55.792;2022-09-09T15:46:27;8.77;;;5.70;;
65210;SDS011;51794;52.758;55.792;2022-09-09T15:48:58;7.35;;;5.35;;
65210;SDS011;51794;52.758;55.792;2022-09-09T15:51:30;7.45;;;5.30;;
65210;SDS011;51794;52.758;55.792;2022-09-09T15:53:56;5.90;;;4.78;;
65210;SDS011;51794;52.758;55.792;2022-09-09T15:56:24;4.97;;;4.28;;
65210;SDS011;51794;52.758;55.792;2022-09-09T15:58:51;5.25;;;4.65;;
65210;SDS011;51794;52.758;55.792;2022-09-09T16:01:17;5.63;;;4.10;;
65210;SDS011;51794;52.758;55.792;2022-09-09T16:03:44;6.10;;;4.28;;
65210;SDS011;51794;52.758;55.792;2022-09-09T16:06:20;7.18;;;4.60;;
65210;SDS011;51794;52.758;55.792;2022-09-09T16:08:48;5.68;;;4.50;;
65210;SDS011;51794;52.758;55.792;2022-09-09T16:11:18;6.57;;;4.80;;
65210;SDS011;51794;52.758;55.792;2022-09-09T16:13:46;7.90;;;5.78;;
65210;SDS011;51794;52.758;55.792;2022-09-09T16:16:17;7.53;;;6.32;;
65210;SDS011;51794;52.758;55.792;2022-09-09T16:18:46;9.50;;;6.20;;
65210;SDS011;51794;52.758;55.792;2022-09-09T16:21:14;15.05;;;9.23;;
65210;SDS011;51794;52.758;55.792;2022-09-09T16:23:43;10.57;;;8.43;;
65210;SDS011;51794;52.758;55.792;2022-09-09T16:26:11;14.05;;;9.02;;
65210;SDS011;51794;52.758;55.792;2022-09-09T16:28:38;11.60;;;8.30;;
65210;SDS011;51794;52.758;55.792;2022-09-09T16:31:08;10.70;;;8.48;;
65210;SDS011;51794;52.758;55.792;2022-09-09T16:33:36;7.55;;;5.72;;
65210;SDS011;51794;52.758;55.792;2022-09-09T16:36:06;9.30;;;7.13;;
65210;SDS011;51794;52.758;55.792;2022-09-09T16:38:53;12.57;;;8.38;;
65210;SDS011;51794;52.758;55.792;2022-09-09T16:41:21;16.52;;;9.93;;
65210;SDS011;51794;52.758;55.792;2022-09-09T16:43:47;10.35;;;7.70;;
65210;SDS011;51794;52.758;55.792;2022-09-09T16:46:19;11.80;;;8.93;;
65210;SDS011;51794;52.758;55.792;2022-09-09T16:48:46;12.48;;;9.90;;
65210;SDS011;51794;52.758;55.792;2022-09-09T16:51:14;15.35;;;11.23;;
65210;SDS011;51794;52.758;55.792;2022-09-09T16:53:42;15.70;;;11.15;;
65210;SDS011;51794;52.758;55.792;2022-09-09T16:56:10;15.65;;;11.35;;
65210;SDS011;51794;52.758;55.792;2022-09-09T16:58:40;18.70;;;12.50;;
65210;SDS011;51794;52.758;55.792;2022-09-09T17:01:08;17.88;;;12.32;;
65210;SDS011;51794;52.758;55.792;2022-09-09T17:03:35;38.42;;;27.67;;
65210;SDS011;51794;52.758;55.792;2022-09-09T17:06:02;38.67;;;28.10;;
65210;SDS011;51794;52.758;55.792;2022-09-09T17:08:33;36.22;;;26.15;;
65210;SDS011;51794;52.758;55.792;2022-09-09T17:10:59;35.15;;;27.67;;
65210;SDS011;51794;52.758;55.792;2022-09-09T17:13:25;37.55;;;28.52;;